sensor_id;sensor_type;location;lat;lon;timestamp;P1;durP1;ratioP1;P2;durP2;ratioP2
3207;SDS011;1616;52.394;9.756;2024-03-08T00:02:13;21.60;;;13.50;;
3207;SDS011;1616;52.394;9.756;2024-03-08T00:04:39;32.70;;;15.23;;
3207;SDS011;1616;52.394;9.756;2024-03-08T00:07:05;27.30;;;14.73;;
3207;SDS011;1616;52.394;9.756;2024-03-08T00:09:32;28.30;;;15.17;;
3207;SDS011;1616;52.394;9.756;2024-03-08T00:11:59;27.07;;;15.33;;
3207;SDS011;1616;52.394;9.756;2024-03-08T00:14:25;29.23;;;15.23;;
3207;SDS011;1616;52.394;9.756;2024-03-08T00:16:50;31.63;;;15.37;;
3207;SDS011;1616;52.394;9.756;2024-03-08T00:19:18;34.37;;;15.50;;
3207;SDS011;1616;52.394;9.756;2024-03-08T00:21:43;24.53;;;13.57;;
3207;SDS011;1616;52.394;9.756;2024-03-08T00:24:10;35.40;;;15.33;;
3207;SDS011;1616;52.394;9.756;2024-03-08T00:26:36;26.50;;;15.00;;
3207;SDS011;1616;52.394;9.756;2024-03-08T00:29:02;34.03;;;15.87;;
3207;SDS011;1616;52.394;9.756;2024-03-08T00:31:28;32.17;;;15.33;;
3207;SDS011;1616;52.394;9.756;2024-03-08T00:33:56;26.20;;;15.97;;
3207;SDS011;1616;52.394;9.756;2024-03-08T00:36:22;24.93;;;14.57;;
3207;SDS011;1616;52.394;9.756;2024-03-08T00:38:48;31.33;;;15.90;;
3207;SDS011;1616;52.394;9.756;2024-03-08T00:41:14;26.17;;;14.00;;
3207;SDS011;1616;52.394;9.756;2024-03-08T00:43:39;38.37;;;15.63;;
3207;SDS011;1616;52.394;9.756;2024-03-08T00:46:05;31.13;;;16.10;;
3207;SDS011;1616;52.394;9.756;2024-03-08T00:48:30;27.13;;;15.33;;
3207;SDS011;1616;52.394;9.756;2024-03-08T00:50:56;32.17;;;15.30;;
3207;SDS011;1616;52.394;9.756;2024-03-08T00:53:22;33.00;;;17.73;;
3207;SDS011;1616;52.394;9.756;2024-03-08T00:55:48;29.33;;;15.47;;
3207;SDS011;1616;52.394;9.756;2024-03-08T00:58:14;33.03;;;16.20;;
3207;SDS011;1616;52.394;9.756;2024-03-08T01:00:40;32.03;;;15.53;;
3207;SDS011;1616;52.394;9.756;2024-03-08T01:03:05;33.97;;;16.80;;
3207;SDS011;1616;52.394;9.756;2024-03-08T01:05:32;33.47;;;16.43;;
3207;SDS011;1616;52.394;9.756;2024-03-08T01:07:58;29.83;;;16.07;;
3207;SDS011;1616;52.394;9.756;2024-03-08T01:10:24;24.50;;;14.27;;
3207;SDS011;1616;52.394;9.756;2024-03-08T01:12:50;35.00;;;15.83;;
3207;SDS011;1616;52.394;9.756;2024-03-08T01:15:16;32.00;;;16.43;;
3207;SDS011;1616;52.394;9.756;2024-03-08T01:17:41;30.63;;;15.60;;
3207;SDS011;1616;52.394;9.756;2024-03-08T01:20:09;25.93;;;14.17;;
3207;SDS011;1616;52.394;9.756;2024-03-08T01:22:37;25.00;;;14.77;;
3207;SDS011;1616;52.394;9.756;2024-03-08T01:25:04;29.93;;;16.67;;
3207;SDS011;1616;52.394;9.756;2024-03-08T01:27:30;30.13;;;16.40;;
3207;SDS011;1616;52.394;9.756;2024-03-08T01:29:56;29.30;;;14.90;;
3207;SDS011;1616;52.394;9.756;2024-03-08T01:32:21;31.53;;;15.87;;
3207;SDS011;1616;52.394;9.756;2024-03-08T01:34:48;31.03;;;15.50;;
3207;SDS011;1616;52.394;9.756;2024-03-08T01:37:14;32.93;;;15.87;;
3207;SDS011;1616;52.394;9.756;2024-03-08T01:39:40;32.37;;;17.27;;
3207;SDS011;1616;52.394;9.756;2024-03-08T01:42:05;33.20;;;15.53;;
3207;SDS011;1616;52.394;9.756;2024-03-08T01:44:31;31.00;;;15.93;;
3207;SDS011;1616;52.394;9.756;2024-03-08T01:46:57;32.80;;;17.40;;
3207;SDS011;1616;52.394;9.756;2024-03-08T01:49:23;32.10;;;15.10;;
3207;SDS011;1616;52.394;9.756;2024-03-08T01:51:51;30.63;;;16.50;;
3207;SDS011;1616;52.394;9.756;2024-03-08T01:54:18;33.97;;;15.93;;
3207;SDS011;1616;52.394;9.756;2024-03-08T01:56:45;35.67;;;16.53;;
3207;SDS011;1616;52.394;9.756;2024-03-08T01:59:12;35.93;;;16.10;;
3207;SDS011;1616;52.394;9.756;2024-03-08T02:01:39;26.53;;;15.17;;
3207;SDS011;1616;52.394;9.756;2024-03-08T02:04:05;31.70;;;16.50;;
3207;SDS011;1616;52.394;9.756;2024-03-08T02:06:32;46.43;;;17.13;;
3207;SDS011;1616;52.394;9.756;2024-03-08T02:08:58;31.00;;;15.63;;
3207;SDS011;1616;52.394;9.756;2024-03-08T02:11:24;36.43;;;17.10;;
3207;SDS011;1616;52.394;9.756;2024-03-08T02:13:49;32.40;;;16.10;;
3207;SDS011;1616;52.394;9.756;2024-03-08T02:16:24;33.23;;;16.63;;
3207;SDS011;1616;52.394;9.756;2024-03-08T02:18:49;34.20;;;14.60;;
3207;SDS011;1616;52.394;9.756;2024-03-08T02:21:16;34.97;;;16.43;;
3207;SDS011;1616;52.394;9.756;2024-03-08T02:23:46;37.27;;;15.60;;
3207;SDS011;1616;52.394;9.756;2024-03-08T02:26:12;31.50;;;17.43;;
3207;SDS011;1616;52.394;9.756;2024-03-08T02:28:37;32.27;;;16.03;;
3207;SDS011;1616;52.394;9.756;2024-03-08T02:31:04;28.87;;;15.43;;
3207;SDS011;1616;52.394;9.756;2024-03-08T02:33:33;32.00;;;17.00;;
3207;SDS011;1616;52.394;9.756;2024-03-08T02:35:59;33.90;;;15.80;;
3207;SDS011;1616;52.394;9.756;2024-03-08T02:38:25;33.33;;;16.13;;
3207;SDS011;1616;52.394;9.756;2024-03-08T02:40:52;35.57;;;16.43;;
3207;SDS011;1616;52.394;9.756;2024-03-08T02:43:18;38.20;;;17.60;;
3207;SDS011;1616;52.394;9.756;2024-03-08T02:45:45;41.70;;;17.67;;
3207;SDS011;1616;52.394;9.756;2024-03-08T02:48:12;28.83;;;15.70;;
3207;SDS011;1616;52.394;9.756;2024-03-08T02:50:38;33.30;;;15.80;;
3207;SDS011;1616;52.394;9.756;2024-03-08T02:53:10;35.73;;;16.90;;
3207;SDS011;1616;52.394;9.756;2024-03-08T02:55:37;37.20;;;17.63;;
3207;SDS011;1616;52.394;9.756;2024-03-08T02:58:04;32.87;;;16.30;;
3207;SDS011;1616;52.394;9.756;2024-03-08T03:00:30;39.57;;;17.27;;
3207;SDS011;1616;52.394;9.756;2024-03-08T03:02:56;32.87;;;15.97;;
3207;SDS011;1616;52.394;9.756;2024-03-08T03:05:22;31.30;;;17.97;;
3207;SDS011;1616;52.394;9.756;2024-03-08T03:07:50;31.70;;;15.90;;
3207;SDS011;1616;52.394;9.756;2024-03-08T03:10:17;39.83;;;16.20;;
3207;SDS011;1616;52.394;9.756;2024-03-08T03:12:44;31.93;;;15.20;;
3207;SDS011;1616;52.394;9.756;2024-03-08T03:15:16;38.90;;;17.50;;
3207;SDS011;1616;52.394;9.756;2024-03-08T03:17:49;34.87;;;17.57;;
3207;SDS011;1616;52.394;9.756;2024-03-08T03:20:18;34.67;;;16.87;;
3207;SDS011;1616;52.394;9.756;2024-03-08T03:22:51;30.77;;;15.80;;
3207;SDS011;1616;52.394;9.756;2024-03-08T03:25:20;38.10;;;18.30;;
3207;SDS011;1616;52.394;9.756;2024-03-08T03:27:49;40.17;;;17.83;;
3207;SDS011;1616;52.394;9.756;2024-03-08T03:30:15;33.80;;;16.23;;
3207;SDS011;1616;52.394;9.756;2024-03-08T03:32:47;38.97;;;18.60;;
3207;SDS011;1616;52.394;9.756;2024-03-08T03:35:14;31.83;;;16.33;;
3207;SDS011;1616;52.394;9.756;2024-03-08T03:37:41;34.27;;;16.83;;
3207;SDS011;1616;52.394;9.756;2024-03-08T03:40:10;33.40;;;16.67;;
3207;SDS011;1616;52.394;9.756;2024-03-08T03:42:36;33.73;;;15.13;;
3207;SDS011;1616;52.394;9.756;2024-03-08T03:45:04;38.27;;;16.60;;
3207;SDS011;1616;52.394;9.756;2024-03-08T03:47:31;37.53;;;17.50;;
3207;SDS011;1616;52.394;9.756;2024-03-08T03:49:56;37.03;;;18.97;;
3207;SDS011;1616;52.394;9.756;2024-03-08T03:52:27;32.00;;;16.70;;
3207;SDS011;1616;52.394;9.756;2024-03-08T03:54:52;40.40;;;16.50;;
3207;SDS011;1616;52.394;9.756;2024-03-08T03:57:18;37.50;;;17.80;;
3207;SDS011;1616;52.394;9.756;2024-03-08T03:59:45;36.20;;;17.63;;
3207;SDS011;1616;52.394;9.756;2024-03-08T04:02:12;31.23;;;15.37;;
3207;SDS011;1616;52.394;9.756;2024-03-08T04:04:38;34.30;;;17.13;;
3207;SDS011;1616;52.394;9.756;2024-03-08T04:07:03;39.20;;;17.67;;
3207;SDS011;1616;52.394;9.756;2024-03-08T04:09:30;35.13;;;17.40;;
3207;SDS011;1616;52.394;9.756;2024-03-08T04:11:55;34.90;;;17.50;;
3207;SDS011;1616;52.394;9.756;2024-03-08T04:14:21;45.40;;;19.87;;
3207;SDS011;1616;52.394;9.756;2024-03-08T04:16:48;37.77;;;16.97;;
3207;SDS011;1616;52.394;9.756;2024-03-08T04:19:13;37.30;;;16.63;;
3207;SDS011;1616;52.394;9.756;2024-03-08T04:21:39;34.20;;;17.53;;
3207;SDS011;1616;52.394;9.756;2024-03-08T04:24:05;34.90;;;17.27;;
3207;SDS011;1616;52.394;9.756;2024-03-08T04:26:31;37.90;;;17.43;;
3207;SDS011;1616;52.394;9.756;2024-03-08T04:28:56;33.90;;;16.40;;
3207;SDS011;1616;52.394;9.756;2024-03-08T04:31:22;36.50;;;17.77;;
3207;SDS011;1616;52.394;9.756;2024-03-08T04:33:48;37.40;;;18.47;;
3207;SDS011;1616;52.394;9.756;2024-03-08T04:36:13;42.80;;;18.37;;
3207;SDS011;1616;52.394;9.756;2024-03-08T04:38:42;35.53;;;16.07;;
3207;SDS011;1616;52.394;9.756;2024-03-08T04:41:08;32.90;;;17.07;;
3207;SDS011;1616;52.394;9.756;2024-03-08T04:43:34;34.27;;;17.43;;
3207;SDS011;1616;52.394;9.756;2024-03-08T04:46:00;33.60;;;17.30;;
3207;SDS011;1616;52.394;9.756;2024-03-08T04:48:26;41.77;;;17.60;;
3207;SDS011;1616;52.394;9.756;2024-03-08T04:50:52;40.13;;;17.50;;
3207;SDS011;1616;52.394;9.756;2024-03-08T04:53:19;37.17;;;17.00;;
3207;SDS011;1616;52.394;9.756;2024-03-08T04:55:44;40.87;;;19.10;;
3207;SDS011;1616;52.394;9.756;2024-03-08T04:58:10;37.97;;;16.77;;
3207;SDS011;1616;52.394;9.756;2024-03-08T05:00:37;33.83;;;17.53;;
3207;SDS011;1616;52.394;9.756;2024-03-08T05:03:02;40.23;;;19.27;;
3207;SDS011;1616;52.394;9.756;2024-03-08T05:05:30;38.40;;;18.50;;
3207;SDS011;1616;52.394;9.756;2024-03-08T05:07:56;39.33;;;18.23;;
3207;SDS011;1616;52.394;9.756;2024-03-08T05:10:21;33.90;;;16.80;;
3207;SDS011;1616;52.394;9.756;2024-03-08T05:12:47;42.57;;;19.37;;
3207;SDS011;1616;52.394;9.756;2024-03-08T05:15:13;38.60;;;19.27;;
3207;SDS011;1616;52.394;9.756;2024-03-08T05:17:39;49.20;;;19.60;;
3207;SDS011;1616;52.394;9.756;2024-03-08T05:20:05;34.87;;;18.13;;
3207;SDS011;1616;52.394;9.756;2024-03-08T05:22:38;43.00;;;18.87;;
3207;SDS011;1616;52.394;9.756;2024-03-08T05:25:05;39.80;;;19.63;;
3207;SDS011;1616;52.394;9.756;2024-03-08T05:27:33;39.70;;;19.40;;
3207;SDS011;1616;52.394;9.756;2024-03-08T05:29:59;49.37;;;20.90;;
3207;SDS011;1616;52.394;9.756;2024-03-08T05:32:25;41.50;;;18.70;;
3207;SDS011;1616;52.394;9.756;2024-03-08T05:34:51;39.57;;;17.57;;
3207;SDS011;1616;52.394;9.756;2024-03-08T05:37:17;37.07;;;18.40;;
3207;SDS011;1616;52.394;9.756;2024-03-08T05:39:45;38.30;;;18.83;;
3207;SDS011;1616;52.394;9.756;2024-03-08T05:42:10;37.77;;;18.47;;
3207;SDS011;1616;52.394;9.756;2024-03-08T05:44:36;39.47;;;18.47;;
3207;SDS011;1616;52.394;9.756;2024-03-08T05:47:01;40.23;;;19.50;;
3207;SDS011;1616;52.394;9.756;2024-03-08T05:49:28;42.40;;;20.00;;
3207;SDS011;1616;52.394;9.756;2024-03-08T05:51:54;49.87;;;21.50;;
3207;SDS011;1616;52.394;9.756;2024-03-08T05:54:19;45.33;;;20.00;;
3207;SDS011;1616;52.394;9.756;2024-03-08T05:56:47;43.20;;;19.10;;
3207;SDS011;1616;52.394;9.756;2024-03-08T05:59:13;45.90;;;19.73;;
3207;SDS011;1616;52.394;9.756;2024-03-08T06:01:38;38.33;;;18.90;;
3207;SDS011;1616;52.394;9.756;2024-03-08T06:04:06;50.70;;;21.60;;
3207;SDS011;1616;52.394;9.756;2024-03-08T06:06:32;42.87;;;19.83;;
3207;SDS011;1616;52.394;9.756;2024-03-08T06:08:58;41.10;;;20.13;;
3207;SDS011;1616;52.394;9.756;2024-03-08T06:11:24;44.00;;;20.00;;
3207;SDS011;1616;52.394;9.756;2024-03-08T06:13:52;41.27;;;19.63;;
3207;SDS011;1616;52.394;9.756;2024-03-08T06:16:25;46.90;;;22.30;;
3207;SDS011;1616;52.394;9.756;2024-03-08T06:18:54;40.03;;;19.30;;
3207;SDS011;1616;52.394;9.756;2024-03-08T06:21:22;40.23;;;19.83;;
3207;SDS011;1616;52.394;9.756;2024-03-08T06:23:52;51.80;;;20.60;;
3207;SDS011;1616;52.394;9.756;2024-03-08T06:26:19;37.90;;;20.23;;
3207;SDS011;1616;52.394;9.756;2024-03-08T06:28:49;39.77;;;21.17;;
3207;SDS011;1616;52.394;9.756;2024-03-08T06:31:15;41.00;;;20.43;;
3207;SDS011;1616;52.394;9.756;2024-03-08T06:33:41;42.67;;;21.20;;
3207;SDS011;1616;52.394;9.756;2024-03-08T06:36:07;34.27;;;18.00;;
3207;SDS011;1616;52.394;9.756;2024-03-08T06:38:35;44.33;;;21.57;;
3207;SDS011;1616;52.394;9.756;2024-03-08T06:41:00;47.83;;;20.33;;
3207;SDS011;1616;52.394;9.756;2024-03-08T06:43:30;44.33;;;21.13;;
3207;SDS011;1616;52.394;9.756;2024-03-08T06:45:59;40.10;;;21.30;;
3207;SDS011;1616;52.394;9.756;2024-03-08T06:48:25;35.60;;;19.53;;
3207;SDS011;1616;52.394;9.756;2024-03-08T06:50:50;37.37;;;19.43;;
3207;SDS011;1616;52.394;9.756;2024-03-08T06:53:17;31.63;;;17.90;;
3207;SDS011;1616;52.394;9.756;2024-03-08T06:55:44;93.13;;;22.23;;
3207;SDS011;1616;52.394;9.756;2024-03-08T06:58:10;34.43;;;19.70;;
3207;SDS011;1616;52.394;9.756;2024-03-08T07:00:36;31.60;;;20.10;;
3207;SDS011;1616;52.394;9.756;2024-03-08T07:03:02;34.93;;;20.60;;
3207;SDS011;1616;52.394;9.756;2024-03-08T07:05:29;35.33;;;21.83;;
3207;SDS011;1616;52.394;9.756;2024-03-08T07:07:55;36.73;;;19.93;;
3207;SDS011;1616;52.394;9.756;2024-03-08T07:10:21;32.47;;;21.30;;
3207;SDS011;1616;52.394;9.756;2024-03-08T07:12:52;31.40;;;21.57;;
3207;SDS011;1616;52.394;9.756;2024-03-08T07:15:21;33.33;;;19.90;;
3207;SDS011;1616;52.394;9.756;2024-03-08T07:17:48;36.93;;;21.33;;
3207;SDS011;1616;52.394;9.756;2024-03-08T07:20:14;33.67;;;18.90;;
3207;SDS011;1616;52.394;9.756;2024-03-08T07:22:44;35.23;;;20.27;;
3207;SDS011;1616;52.394;9.756;2024-03-08T07:25:13;33.23;;;20.90;;
3207;SDS011;1616;52.394;9.756;2024-03-08T07:27:50;30.97;;;18.60;;
3207;SDS011;1616;52.394;9.756;2024-03-08T07:30:17;36.50;;;22.73;;
3207;SDS011;1616;52.394;9.756;2024-03-08T07:33:02;37.37;;;22.23;;
3207;SDS011;1616;52.394;9.756;2024-03-08T07:35:28;34.70;;;20.97;;
3207;SDS011;1616;52.394;9.756;2024-03-08T07:37:54;28.33;;;19.57;;
3207;SDS011;1616;52.394;9.756;2024-03-08T07:40:23;34.77;;;19.93;;
3207;SDS011;1616;52.394;9.756;2024-03-08T07:42:49;31.60;;;21.43;;
3207;SDS011;1616;52.394;9.756;2024-03-08T07:45:15;27.57;;;19.70;;
3207;SDS011;1616;52.394;9.756;2024-03-08T07:47:41;29.97;;;21.90;;
3207;SDS011;1616;52.394;9.756;2024-03-08T07:50:07;31.60;;;21.73;;
3207;SDS011;1616;52.394;9.756;2024-03-08T07:52:33;34.17;;;19.60;;
3207;SDS011;1616;52.394;9.756;2024-03-08T07:55:00;27.93;;;19.77;;
3207;SDS011;1616;52.394;9.756;2024-03-08T07:57:25;29.50;;;21.07;;
3207;SDS011;1616;52.394;9.756;2024-03-08T07:59:51;31.20;;;20.57;;
3207;SDS011;1616;52.394;9.756;2024-03-08T08:02:17;33.57;;;19.53;;
3207;SDS011;1616;52.394;9.756;2024-03-08T08:04:43;27.70;;;20.83;;
3207;SDS011;1616;52.394;9.756;2024-03-08T08:07:10;28.30;;;20.70;;
3207;SDS011;1616;52.394;9.756;2024-03-08T08:09:36;31.77;;;21.67;;
3207;SDS011;1616;52.394;9.756;2024-03-08T08:12:04;23.33;;;20.00;;
3207;SDS011;1616;52.394;9.756;2024-03-08T08:14:31;25.73;;;20.33;;
3207;SDS011;1616;52.394;9.756;2024-03-08T08:16:56;25.23;;;20.10;;
3207;SDS011;1616;52.394;9.756;2024-03-08T08:19:25;30.23;;;21.80;;
3207;SDS011;1616;52.394;9.756;2024-03-08T08:21:52;32.53;;;21.87;;
3207;SDS011;1616;52.394;9.756;2024-03-08T08:24:17;29.30;;;20.80;;
3207;SDS011;1616;52.394;9.756;2024-03-08T08:26:45;32.63;;;23.23;;
3207;SDS011;1616;52.394;9.756;2024-03-08T08:29:11;26.57;;;20.10;;
3207;SDS011;1616;52.394;9.756;2024-03-08T08:31:36;30.73;;;21.97;;
3207;SDS011;1616;52.394;9.756;2024-03-08T08:34:02;23.50;;;20.37;;
3207;SDS011;1616;52.394;9.756;2024-03-08T08:36:28;25.90;;;19.77;;
3207;SDS011;1616;52.394;9.756;2024-03-08T08:38:55;31.17;;;21.63;;
3207;SDS011;1616;52.394;9.756;2024-03-08T08:41:23;31.30;;;22.57;;
3207;SDS011;1616;52.394;9.756;2024-03-08T08:43:49;26.83;;;22.07;;
3207;SDS011;1616;52.394;9.756;2024-03-08T08:46:17;31.07;;;21.07;;
3207;SDS011;1616;52.394;9.756;2024-03-08T08:48:44;37.03;;;22.43;;
3207;SDS011;1616;52.394;9.756;2024-03-08T08:51:12;29.27;;;21.07;;
3207;SDS011;1616;52.394;9.756;2024-03-08T08:53:38;26.20;;;21.40;;
3207;SDS011;1616;52.394;9.756;2024-03-08T08:56:08;23.97;;;20.70;;
3207;SDS011;1616;52.394;9.756;2024-03-08T08:58:34;28.13;;;21.50;;
3207;SDS011;1616;52.394;9.756;2024-03-08T09:00:59;27.57;;;20.57;;
3207;SDS011;1616;52.394;9.756;2024-03-08T09:03:26;29.27;;;22.80;;
3207;SDS011;1616;52.394;9.756;2024-03-08T09:05:54;28.40;;;22.60;;
3207;SDS011;1616;52.394;9.756;2024-03-08T09:08:19;34.47;;;22.40;;
3207;SDS011;1616;52.394;9.756;2024-03-08T09:10:45;29.97;;;23.30;;
3207;SDS011;1616;52.394;9.756;2024-03-08T09:13:13;29.80;;;21.87;;
3207;SDS011;1616;52.394;9.756;2024-03-08T09:15:39;26.23;;;21.80;;
3207;SDS011;1616;52.394;9.756;2024-03-08T09:18:05;34.07;;;22.27;;
3207;SDS011;1616;52.394;9.756;2024-03-08T09:20:31;28.70;;;22.40;;
3207;SDS011;1616;52.394;9.756;2024-03-08T09:22:57;24.53;;;22.03;;
3207;SDS011;1616;52.394;9.756;2024-03-08T09:25:23;25.47;;;22.23;;
3207;SDS011;1616;52.394;9.756;2024-03-08T09:27:49;35.20;;;23.60;;
3207;SDS011;1616;52.394;9.756;2024-03-08T09:30:14;26.60;;;20.90;;
3207;SDS011;1616;52.394;9.756;2024-03-08T09:32:41;22.80;;;20.27;;
3207;SDS011;1616;52.394;9.756;2024-03-08T09:35:09;27.33;;;22.33;;
3207;SDS011;1616;52.394;9.756;2024-03-08T09:37:36;24.17;;;20.60;;
3207;SDS011;1616;52.394;9.756;2024-03-08T09:40:03;24.33;;;20.20;;
3207;SDS011;1616;52.394;9.756;2024-03-08T09:42:36;23.13;;;20.10;;
3207;SDS011;1616;52.394;9.756;2024-03-08T09:45:07;24.30;;;21.37;;
3207;SDS011;1616;52.394;9.756;2024-03-08T09:47:46;25.00;;;20.70;;
3207;SDS011;1616;52.394;9.756;2024-03-08T09:50:14;25.00;;;20.33;;
3207;SDS011;1616;52.394;9.756;2024-03-08T09:52:43;23.73;;;21.30;;
3207;SDS011;1616;52.394;9.756;2024-03-08T09:55:11;21.27;;;19.03;;
3207;SDS011;1616;52.394;9.756;2024-03-08T09:57:37;22.43;;;19.97;;
3207;SDS011;1616;52.394;9.756;2024-03-08T10:00:05;25.23;;;21.10;;
3207;SDS011;1616;52.394;9.756;2024-03-08T10:02:48;31.30;;;22.23;;
3207;SDS011;1616;52.394;9.756;2024-03-08T10:05:18;37.90;;;21.80;;
3207;SDS011;1616;52.394;9.756;2024-03-08T10:07:43;23.03;;;20.43;;
3207;SDS011;1616;52.394;9.756;2024-03-08T10:10:09;24.50;;;21.53;;
3207;SDS011;1616;52.394;9.756;2024-03-08T10:12:37;27.37;;;21.40;;
3207;SDS011;1616;52.394;9.756;2024-03-08T10:15:05;26.27;;;20.40;;
3207;SDS011;1616;52.394;9.756;2024-03-08T10:17:35;24.00;;;20.20;;
3207;SDS011;1616;52.394;9.756;2024-03-08T10:20:01;21.97;;;19.63;;
3207;SDS011;1616;52.394;9.756;2024-03-08T10:22:27;23.10;;;20.00;;
3207;SDS011;1616;52.394;9.756;2024-03-08T10:24:54;22.87;;;20.23;;
3207;SDS011;1616;52.394;9.756;2024-03-08T10:27:20;23.63;;;19.50;;
3207;SDS011;1616;52.394;9.756;2024-03-08T10:29:47;22.93;;;20.50;;
3207;SDS011;1616;52.394;9.756;2024-03-08T10:32:13;23.53;;;21.00;;
3207;SDS011;1616;52.394;9.756;2024-03-08T10:34:39;24.43;;;21.80;;
3207;SDS011;1616;52.394;9.756;2024-03-08T10:37:08;24.00;;;20.70;;
3207;SDS011;1616;52.394;9.756;2024-03-08T10:39:44;22.10;;;19.93;;
3207;SDS011;1616;52.394;9.756;2024-03-08T10:42:16;23.73;;;20.70;;
3207;SDS011;1616;52.394;9.756;2024-03-08T10:44:56;23.63;;;20.03;;
3207;SDS011;1616;52.394;9.756;2024-03-08T10:47:31;24.13;;;19.93;;
3207;SDS011;1616;52.394;9.756;2024-03-08T10:50:11;22.07;;;19.77;;
3207;SDS011;1616;52.394;9.756;2024-03-08T10:52:46;22.30;;;20.00;;
3207;SDS011;1616;52.394;9.756;2024-03-08T10:55:17;26.40;;;20.67;;
3207;SDS011;1616;52.394;9.756;2024-03-08T10:57:45;24.27;;;21.00;;
3207;SDS011;1616;52.394;9.756;2024-03-08T11:00:12;24.23;;;21.73;;
3207;SDS011;1616;52.394;9.756;2024-03-08T11:02:39;22.50;;;20.10;;
3207;SDS011;1616;52.394;9.756;2024-03-08T11:05:11;23.57;;;20.83;;
3207;SDS011;1616;52.394;9.756;2024-03-08T11:07:56;22.10;;;19.80;;
3207;SDS011;1616;52.394;9.756;2024-03-08T11:10:22;22.90;;;20.57;;
3207;SDS011;1616;52.394;9.756;2024-03-08T11:12:49;25.43;;;21.30;;
3207;SDS011;1616;52.394;9.756;2024-03-08T11:15:14;26.87;;;22.03;;
3207;SDS011;1616;52.394;9.756;2024-03-08T11:17:50;24.63;;;20.33;;
3207;SDS011;1616;52.394;9.756;2024-03-08T11:20:16;23.30;;;20.80;;
3207;SDS011;1616;52.394;9.756;2024-03-08T11:25:36;22.30;;;20.00;;
3207;SDS011;1616;52.394;9.756;2024-03-08T11:28:07;24.07;;;21.47;;
3207;SDS011;1616;52.394;9.756;2024-03-08T11:30:35;24.57;;;21.77;;
3207;SDS011;1616;52.394;9.756;2024-03-08T11:33:03;24.87;;;22.37;;
3207;SDS011;1616;52.394;9.756;2024-03-08T11:35:29;29.30;;;22.13;;
3207;SDS011;1616;52.394;9.756;2024-03-08T11:37:57;24.30;;;21.70;;
3207;SDS011;1616;52.394;9.756;2024-03-08T11:40:25;27.73;;;22.10;;
3207;SDS011;1616;52.394;9.756;2024-03-08T11:42:51;23.50;;;20.77;;
3207;SDS011;1616;52.394;9.756;2024-03-08T11:45:17;22.93;;;20.50;;
3207;SDS011;1616;52.394;9.756;2024-03-08T11:47:46;25.53;;;22.27;;
3207;SDS011;1616;52.394;9.756;2024-03-08T11:50:13;27.57;;;22.93;;
3207;SDS011;1616;52.394;9.756;2024-03-08T11:52:39;28.47;;;22.60;;
3207;SDS011;1616;52.394;9.756;2024-03-08T11:55:05;28.10;;;23.80;;
3207;SDS011;1616;52.394;9.756;2024-03-08T11:57:31;26.73;;;22.93;;
3207;SDS011;1616;52.394;9.756;2024-03-08T11:59:57;26.77;;;22.83;;
3207;SDS011;1616;52.394;9.756;2024-03-08T12:02:31;30.50;;;21.90;;
3207;SDS011;1616;52.394;9.756;2024-03-08T12:05:01;29.37;;;23.40;;
3207;SDS011;1616;52.394;9.756;2024-03-08T12:07:31;28.70;;;23.30;;
3207;SDS011;1616;52.394;9.756;2024-03-08T12:12:48;32.83;;;20.67;;
3207;SDS011;1616;52.394;9.756;2024-03-08T12:15:16;28.17;;;22.17;;
3207;SDS011;1616;52.394;9.756;2024-03-08T12:17:44;22.43;;;19.83;;
3207;SDS011;1616;52.394;9.756;2024-03-08T12:20:22;25.93;;;21.23;;
3207;SDS011;1616;52.394;9.756;2024-03-08T12:22:53;31.53;;;24.57;;
3207;SDS011;1616;52.394;9.756;2024-03-08T12:25:21;31.33;;;24.70;;
3207;SDS011;1616;52.394;9.756;2024-03-08T12:27:47;38.00;;;24.30;;
3207;SDS011;1616;52.394;9.756;2024-03-08T12:30:20;29.20;;;23.43;;
3207;SDS011;1616;52.394;9.756;2024-03-08T12:32:57;30.03;;;22.43;;
3207;SDS011;1616;52.394;9.756;2024-03-08T12:35:25;27.63;;;23.20;;
3207;SDS011;1616;52.394;9.756;2024-03-08T12:37:58;25.57;;;20.60;;
3207;SDS011;1616;52.394;9.756;2024-03-08T12:40:31;27.70;;;22.60;;
3207;SDS011;1616;52.394;9.756;2024-03-08T12:42:59;26.77;;;22.80;;
3207;SDS011;1616;52.394;9.756;2024-03-08T12:45:26;30.53;;;21.30;;
3207;SDS011;1616;52.394;9.756;2024-03-08T12:47:52;24.33;;;21.80;;
3207;SDS011;1616;52.394;9.756;2024-03-08T12:50:19;27.50;;;23.03;;
3207;SDS011;1616;52.394;9.756;2024-03-08T12:52:45;34.17;;;23.83;;
3207;SDS011;1616;52.394;9.756;2024-03-08T12:55:11;27.13;;;21.93;;
3207;SDS011;1616;52.394;9.756;2024-03-08T12:57:37;27.93;;;23.17;;
3207;SDS011;1616;52.394;9.756;2024-03-08T13:00:03;33.97;;;22.93;;
3207;SDS011;1616;52.394;9.756;2024-03-08T13:02:30;32.63;;;21.70;;
3207;SDS011;1616;52.394;9.756;2024-03-08T13:04:57;29.27;;;22.00;;
3207;SDS011;1616;52.394;9.756;2024-03-08T13:07:23;34.30;;;23.27;;
3207;SDS011;1616;52.394;9.756;2024-03-08T13:09:53;34.13;;;23.67;;
3207;SDS011;1616;52.394;9.756;2024-03-08T13:12:22;33.27;;;21.97;;
3207;SDS011;1616;52.394;9.756;2024-03-08T13:14:49;29.93;;;22.40;;
3207;SDS011;1616;52.394;9.756;2024-03-08T13:17:15;27.60;;;20.23;;
3207;SDS011;1616;52.394;9.756;2024-03-08T13:19:41;25.67;;;19.50;;
3207;SDS011;1616;52.394;9.756;2024-03-08T13:22:09;24.17;;;18.47;;
3207;SDS011;1616;52.394;9.756;2024-03-08T13:24:40;28.30;;;20.40;;
3207;SDS011;1616;52.394;9.756;2024-03-08T13:27:07;32.33;;;20.93;;
3207;SDS011;1616;52.394;9.756;2024-03-08T13:29:53;27.53;;;19.50;;
3207;SDS011;1616;52.394;9.756;2024-03-08T13:32:19;28.17;;;17.30;;
3207;SDS011;1616;52.394;9.756;2024-03-08T13:34:48;26.50;;;17.90;;
3207;SDS011;1616;52.394;9.756;2024-03-08T13:37:16;33.03;;;20.87;;
3207;SDS011;1616;52.394;9.756;2024-03-08T13:39:42;27.77;;;18.67;;
3207;SDS011;1616;52.394;9.756;2024-03-08T13:42:11;25.60;;;18.83;;
3207;SDS011;1616;52.394;9.756;2024-03-08T13:44:47;26.83;;;16.57;;
3207;SDS011;1616;52.394;9.756;2024-03-08T13:47:14;28.23;;;17.97;;
3207;SDS011;1616;52.394;9.756;2024-03-08T13:49:40;28.50;;;18.70;;
3207;SDS011;1616;52.394;9.756;2024-03-08T13:52:06;30.00;;;18.73;;
3207;SDS011;1616;52.394;9.756;2024-03-08T13:54:34;25.10;;;17.80;;
3207;SDS011;1616;52.394;9.756;2024-03-08T13:57:00;23.80;;;16.53;;
3207;SDS011;1616;52.394;9.756;2024-03-08T13:59:29;31.67;;;18.00;;
3207;SDS011;1616;52.394;9.756;2024-03-08T14:02:01;30.10;;;18.83;;
3207;SDS011;1616;52.394;9.756;2024-03-08T14:04:28;26.90;;;18.80;;
3207;SDS011;1616;52.394;9.756;2024-03-08T14:06:54;28.70;;;18.50;;
3207;SDS011;1616;52.394;9.756;2024-03-08T14:09:25;28.83;;;18.23;;
3207;SDS011;1616;52.394;9.756;2024-03-08T14:11:57;27.30;;;17.10;;
3207;SDS011;1616;52.394;9.756;2024-03-08T14:14:23;20.87;;;15.17;;
3207;SDS011;1616;52.394;9.756;2024-03-08T14:16:50;26.10;;;18.10;;
3207;SDS011;1616;52.394;9.756;2024-03-08T14:19:20;25.77;;;16.90;;
3207;SDS011;1616;52.394;9.756;2024-03-08T14:21:46;23.33;;;16.40;;
3207;SDS011;1616;52.394;9.756;2024-03-08T14:24:14;26.93;;;15.97;;
3207;SDS011;1616;52.394;9.756;2024-03-08T14:26:41;27.37;;;17.20;;
3207;SDS011;1616;52.394;9.756;2024-03-08T14:29:07;28.07;;;16.80;;
3207;SDS011;1616;52.394;9.756;2024-03-08T14:31:35;21.90;;;16.00;;
3207;SDS011;1616;52.394;9.756;2024-03-08T14:34:02;19.67;;;15.97;;
3207;SDS011;1616;52.394;9.756;2024-03-08T14:36:29;26.70;;;16.10;;
3207;SDS011;1616;52.394;9.756;2024-03-08T14:38:55;22.60;;;15.67;;
3207;SDS011;1616;52.394;9.756;2024-03-08T14:41:20;20.23;;;15.97;;
3207;SDS011;1616;52.394;9.756;2024-03-08T14:43:47;23.63;;;15.70;;
3207;SDS011;1616;52.394;9.756;2024-03-08T14:46:13;24.57;;;16.17;;
3207;SDS011;1616;52.394;9.756;2024-03-08T14:48:45;28.70;;;16.47;;
3207;SDS011;1616;52.394;9.756;2024-03-08T14:51:12;25.47;;;16.13;;
3207;SDS011;1616;52.394;9.756;2024-03-08T14:53:42;21.73;;;15.10;;
3207;SDS011;1616;52.394;9.756;2024-03-08T14:56:10;28.17;;;16.67;;